Latest Weather Observations for Hay Airport

IDN60801

Issued at 6:23 pm EST Saturday 9 May 2026 (issued every 10 minutes, with the page automatically refreshed every 10 minutes)

About weather observations | Map of weather stations | Latest weather observations for NSW | Other Formats
Station Details ID: 075019 Name: HAY AIRPORT AWS Lat: -34.54 Lon: 144.83 Height: 92.0 m
Data from the previous 72 hours. | See also: Recent months at Hay Airport
Date/Time
EST
Temp
°C
App
Temp
°C
Dew
Point
°C
Rel
Hum
%
Delta-T
°C
Wind Press
QNH
hPa
Press
MSL
hPa
Rain since
9am
mm
Dir  Spd
km/h
Gust
km/h
Spd
kts
Gust
kts
09/06:00pm 14.2 11.5 7.5 64 3.3 SW 11 13 6 7 1026.3 1026.3 0.0
09/05:30pm 16.1 13.5 7.6 57 4.3 SSW 11 15 6 8 1025.9 1025.9 0.0
09/05:00pm 17.9 14.7 7.0 49 5.4 SSW 13 19 7 10 1025.7 1025.7 0.0
09/04:30pm 18.6 15.0 6.8 46 5.9 SW 15 20 8 11 1025.6 1025.6 0.0
09/04:00pm 19.1 15.2 6.9 45 6.1 SW 17 22 9 12 1025.5 1025.5 0.0
09/03:30pm 19.5 15.6 7.3 45 6.2 SW 17 24 9 13 1025.5 1025.5 0.0
09/03:00pm 19.4 15.2 7.5 46 6.1 SSW 19 26 10 14 1025.5 1025.5 0.0
09/02:30pm 19.4 16.0 7.8 47 6.0 SSW 15 22 8 12 1025.5 1025.5 0.0
09/02:00pm 18.9 14.8 8.0 49 5.6 SW 19 26 10 14 1025.7 1025.7 0.0
09/01:30pm 18.9 15.7 8.3 50 5.5 SW 15 26 8 14 1025.9 1025.9 0.0
09/01:00pm 18.7 15.5 8.4 51 5.3 SW 15 20 8 11 1026.2 1026.2 0.0
09/12:30pm 17.8 14.6 8.4 54 4.8 SSW 15 24 8 13 1026.7 1026.7 0.0
09/12:00pm 17.4 14.2 8.5 56 4.6 S 15 28 8 15 1027.3 1027.3 0.0
09/11:30am 16.8 13.1 8.0 56 4.5 S 17 28 9 15 1027.7 1027.7 0.0
09/11:00am 16.5 12.9 8.5 59 4.1 S 17 24 9 13 1027.9 1027.9 0.0
09/10:30am 15.5 11.7 9.0 65 3.3 S 19 28 10 15 1028.0 1028.0 0.0
09/10:00am 14.8 11.7 10.4 75 2.3 S 17 24 9 13 1028.1 1028.1 0.0
09/09:30am 13.0 9.6 10.4 84 1.4 SSW 19 26 10 14 1028.1 1028.1 0.0
09/09:00am 11.6 8.4 11.4 99 0.1 SSW 19 24 10 13 1028.0 1028.0 0.0
09/08:30am 10.0 7.6 10.0 100 0.0 SW 13 17 7 9 1028.0 1028.0 0.0
09/08:00am 7.9 5.3 7.9 100 0.0 SW 11 17 6 9 1027.5 1027.5 0.0
09/07:30am 5.6 2.1 5.6 100 0.0 SW 13 15 7 8 1027.4 1027.4 0.0
09/07:00am 4.0 1.0 3.9 99 0.0 WSW 9 11 5 6 1026.9 1026.9 0.0
09/06:30am 4.1 1.5 4.0 99 0.0 WSW 7 7 4 4 1026.6 1026.6 0.0
09/06:00am 3.8 1.1 3.7 99 0.0 WSW 7 11 4 6 1026.1 1026.1 0.0
09/05:30am 5.8 2.7 5.7 99 0.0 SW 11 13 6 7 1025.9 1025.9 0.0
09/05:00am 5.9 2.9 5.8 99 0.0 SW 11 13 6 7 1025.9 1025.9 0.0
09/04:30am 6.7 3.4 6.6 99 0.0 SW 13 15 7 8 1025.9 1025.9 0.0
09/04:00am 5.9 3.2 5.8 99 0.0 WSW 9 11 5 6 1025.9 1025.9 0.0
09/03:30am 6.5 4.0 6.4 99 0.0 WSW 9 11 5 6 1026.0 1026.0 0.0
09/03:00am 6.8 3.9 6.7 99 0.0 WSW 11 13 6 7 1026.0 1026.0 0.0
09/02:30am 7.4 5.1 7.3 99 0.0 WSW 9 13 5 7 1025.9 1025.9 0.0
09/02:00am 8.1 5.6 8.0 99 0.0 SW 11 13 6 7 1025.9 1025.9 0.0
09/01:30am 8.0 5.4 7.9 99 0.0 SW 11 13 6 7 1026.0 1026.0 0.0
09/01:00am 8.7 5.9 8.6 99 0.0 SW 13 17 7 9 1025.9 1025.9 0.0
09/12:30am 8.4 5.9 8.3 99 0.0 WSW 11 15 6 8 1025.8 1025.8 0.0
09/12:00am 9.1 6.4 9.0 99 0.0 WSW 13 17 7 9 1025.8 1025.8 0.0
 
Date/Time
EST
Temp
°C
App
Temp
°C
Dew
Point
°C
Rel
Hum
%
Delta-T
°C
Wind Press
QNH
hPa
Press
MSL
hPa
Rain since
9am
mm
Dir  Spd
km/h
Gust
km/h
Spd
kts
Gust
kts
08/11:30pm 9.8 6.9 9.5 98 0.2 SW 15 17 8 9 1025.9 1025.9 0.0
08/11:00pm 10.4 7.5 9.8 96 0.3 SW 15 17 8 9 1026.0 1026.0 0.0
08/10:30pm 10.0 7.3 9.1 94 0.4 WSW 13 17 7 9 1026.2 1026.2 0.0
08/10:00pm 10.6 8.0 9.2 91 0.7 WSW 13 15 7 8 1026.1 1026.1 0.0
08/09:30pm 11.3 8.3 9.2 87 1.1 WSW 15 17 8 9 1025.8 1025.8 0.0
08/09:00pm 12.0 8.6 9.2 83 1.4 WSW 17 20 9 11 1025.7 1025.7 0.0
08/08:30pm 12.4 8.6 9.2 81 1.6 WSW 19 20 10 11 1025.6 1025.6 0.0
08/08:00pm 12.4 8.9 8.9 79 1.7 WSW 17 20 9 11 1025.4 1025.4 0.0
08/07:30pm 12.8 9.3 8.7 76 2.1 WSW 17 19 9 10 1025.3 1025.3 0.0
08/07:00pm 13.8 10.3 8.6 71 2.6 WSW 17 20 9 11 1025.1 1025.1 0.0
08/06:30pm 13.8 10.2 8.2 69 2.8 WSW 17 20 9 11 1024.8 1024.8 0.0
08/06:00pm 14.8 11.5 8.1 64 3.4 WSW 15 19 8 10 1024.6 1024.6 0.0
08/05:30pm 16.6 12.4 8.3 58 4.2 SW 20 30 11 16 1024.4 1024.4 0.0
08/05:00pm 17.2 12.3 8.6 57 4.4 WSW 24 32 13 17 1024.2 1024.2 0.0
08/04:30pm 17.4 12.2 8.8 57 4.5 WSW 26 33 14 18 1024.2 1024.2 0.0
08/04:00pm 17.8 12.2 8.6 55 4.7 SW 28 35 15 19 1024.2 1024.2 0.0
08/03:30pm 17.9 12.2 8.2 53 5.0 SW 28 39 15 21 1024.1 1024.1 0.0
08/03:00pm 17.8 11.9 8.9 56 4.6 SW 30 37 16 20 1024.1 1024.1 0.0
08/02:30pm 17.7 12.4 9.8 60 4.2 SW 28 33 15 18 1024.1 1024.1 0.0
08/02:00pm 17.4 12.5 9.8 61 4.0 SW 26 33 14 18 1024.1 1024.1 0.0
08/01:30pm 17.1 12.1 9.5 61 4.0 WSW 26 35 14 19 1024.2 1024.2 0.0
08/01:00pm 17.8 12.5 9.7 59 4.3 WSW 28 39 15 21 1024.5 1024.5 0.0
08/12:30pm 16.1 10.2 9.1 63 3.6 WSW 30 39 16 21 1024.8 1024.8 0.0
08/12:00pm 15.7 10.4 9.8 68 3.1 WSW 28 41 15 22 1025.4 1025.4 0.0
08/11:30am 15.0 9.7 10.0 72 2.6 WSW 28 43 15 23 1025.9 1025.9 0.0
08/11:00am 14.6 8.6 10.0 74 2.4 WSW 32 41 17 22 1026.1 1026.1 0.0
08/10:30am 13.9 7.6 9.7 76 2.2 WSW 33 43 18 23 1026.2 1026.2 0.0
08/10:00am 13.5 7.9 10.1 80 1.8 WSW 30 39 16 21 1026.2 1026.2 0.0
08/09:30am 13.5 8.2 9.9 79 1.9 W 28 37 15 20 1026.1 1026.1 0.0
08/09:00am 12.0 7.5 10.1 88 1.0 W 24 32 13 17 1026.1 1026.1 0.0
08/08:30am 11.0 6.9 10.2 95 0.4 W 22 30 12 16 1026.4 1026.4 0.0
08/08:00am 10.7 5.7 9.5 92 0.6 WSW 26 33 14 18 1026.4 1026.4 0.0
08/07:30am 10.3 5.5 8.9 91 0.7 WSW 24 33 13 18 1026.3 1026.3 0.0
08/07:00am 10.1 5.2 8.4 89 0.8 WSW 24 32 13 17 1025.9 1025.9 0.0
08/06:30am 10.0 5.8 8.1 88 0.9 W 20 28 11 15 1025.4 1025.4 0.0
08/06:00am 9.5 4.5 7.9 90 0.8 W 24 35 13 19 1024.9 1024.9 0.0
08/05:30am 9.0 3.8 7.3 89 0.8 W 24 32 13 17 1024.8 1024.8 0.0
08/05:00am 8.6 4.1 6.9 89 0.8 W 20 28 11 15 1024.9 1024.9 0.0
08/04:30am 8.3 3.8 5.9 85 1.1 W 19 24 10 13 1024.9 1024.9 0.0
08/04:00am 8.6 4.0 5.7 82 1.3 W 19 24 10 13 1025.0 1025.0 0.0
08/03:30am 9.1 4.3 5.5 78 1.6 W 20 26 11 14 1025.0 1025.0 0.0
08/03:00am 10.1 5.3 5.5 73 2.1 W 20 30 11 16 1025.2 1025.2 0.0
08/02:30am 9.9 5.2 5.3 73 2.1 W 19 26 10 14 1025.3 1025.3 0.0
08/02:00am 10.0 5.1 5.0 71 2.3 W 20 26 11 14 1025.6 1025.6 0.0
08/01:30am 9.9 5.1 4.9 71 2.3 W 19 24 10 13 1025.8 1025.8 0.0
08/01:00am 9.5 5.5 4.7 72 2.1 W 15 19 8 10 1025.7 1025.7 0.0
08/12:30am 9.2 4.7 4.0 70 2.3 W 17 20 9 11 1025.8 1025.8 0.0
08/12:00am 8.7 4.1 3.7 71 2.2 WSW 17 22 9 12 1026.0 1026.0 0.0
 
Date/Time
EST
Temp
°C
App
Temp
°C
Dew
Point
°C
Rel
Hum
%
Delta-T
°C
Wind Press
QNH
hPa
Press
MSL
hPa
Rain since
9am
mm
Dir  Spd
km/h
Gust
km/h
Spd
kts
Gust
kts
07/11:30pm 8.2 3.1 3.3 71 2.1 WSW 19 24 10 13 1026.1 1026.1 0.0
07/11:00pm 8.3 3.0 3.0 69 2.2 WSW 20 24 11 13 1026.1 1026.1 0.0
07/10:30pm 9.2 3.9 3.2 66 2.6 W 20 26 11 14 1026.1 1026.1 0.0
07/10:00pm 8.5 3.8 2.9 68 2.4 W 17 20 9 11 1026.2 1026.2 0.0
07/09:30pm 8.5 4.2 3.1 69 2.3 WNW 15 17 8 9 1026.1 1026.1 0.0
07/09:00pm 7.9 3.9 3.0 71 2.1 WNW 13 17 7 9 1025.9 1025.9 0.0
07/08:30pm 8.7 4.0 2.9 67 2.5 W 17 20 9 11 1026.0 1026.0 0.0
07/08:00pm 8.4 3.9 2.4 66 2.5 W 15 17 8 9 1026.2 1026.2 0.0
07/07:30pm 9.2 4.7 2.3 62 2.9 W 15 17 8 9 1026.3 1026.3 0.0
07/07:00pm 9.1 4.6 2.4 63 2.8 WSW 15 17 8 9 1026.1 1026.1 0.0
07/06:30pm 10.2 6.1 2.1 57 3.4 WSW 13 17 7 9 1025.9 1025.9 0.0
07/06:00pm 10.6 5.7 1.7 54 3.7 SW 17 22 9 12 1025.7 1025.7 0.0
07/05:30pm 11.7 6.3 1.4 49 4.4 SW 19 26 10 14 1025.5 1025.5 0.0
07/05:00pm 12.4 5.6 1.1 46 4.8 SSW 26 33 14 18 1025.3 1025.3 0.0
07/04:30pm 13.3 6.1 0.7 42 5.3 SW 28 41 15 22 1025.1 1025.1 0.0
07/04:00pm 13.9 6.0 0.9 41 5.5 SSW 32 44 17 24 1025.0 1025.0 0.0
07/03:30pm 14.5 6.5 0.7 39 5.9 SW 32 41 17 22 1024.9 1024.9 0.0
07/03:00pm 14.7 6.5 0.2 37 6.1 SW 33 46 18 25 1024.9 1024.9 0.0
07/02:30pm 14.5 6.4 0.7 39 5.9 SW 33 46 18 25 1024.8 1024.8 0.0
07/02:00pm 14.7 6.7 0.2 37 6.1 SW 32 46 17 25 1024.8 1024.8 0.0
07/01:30pm 14.0 5.9 -0.1 38 5.9 SW 32 46 17 25 1024.8 1024.8 0.0
07/01:00pm 13.8 5.2 0.5 40 5.6 SW 35 46 19 25 1025.0 1025.0 0.0
07/12:30pm 13.3 4.7 0.3 41 5.5 SW 35 46 19 25 1025.3 1025.3 0.0
07/12:00pm 13.7 5.7 1.7 44 5.2 SW 33 46 18 25 1025.5 1025.5 0.0
07/11:30am 13.1 4.7 1.5 45 5.0 SSW 35 46 19 25 1025.6 1025.6 0.0
07/11:00am 12.1 4.7 2.0 50 4.3 SW 30 39 16 21 1025.7 1025.7 0.0
07/10:30am 11.0 3.4 2.6 56 3.6 SW 32 43 17 23 1025.7 1025.7 0.0
07/10:00am 10.2 2.5 2.3 58 3.4 SW 32 46 17 25 1025.5 1025.5 0.0
07/09:30am 9.1 1.2 2.4 63 2.8 SW 33 43 18 23 1025.4 1025.4 0.0
07/09:00am 8.4 0.9 3.3 70 2.2 SW 32 41 17 22 1025.2 1025.2 0.4
07/08:30am 7.5 1.2 3.9 78 1.6 WSW 26 35 14 19 1024.8 1024.8 0.4
07/08:00am 6.6 0.7 3.8 82 1.2 WSW 24 33 13 18 1024.4 1024.4 0.4
07/07:30am 5.4 -0.2 3.6 88 0.8 WSW 22 28 12 15 1023.7 1023.7 0.4
07/07:00am 5.1 -0.1 3.6 90 0.6 WSW 20 24 11 13 1023.3 1023.3 0.4
07/06:30am 5.4 0.2 3.7 89 0.7 WSW 20 26 11 14 1022.8 1022.8 0.4
07/06:00am 6.0 0.1 4.0 87 0.8 WSW 24 30 13 16 1022.3 1022.4 0.4
07/05:30am 6.2 0.7 3.9 85 1.0 WSW 22 32 12 17 1022.2 1022.3 0.4
07/05:00am 6.4 1.4 4.4 87 0.9 WSW 20 26 11 14 1021.9 1022.0 0.4
07/04:30am 6.7 1.9 4.7 87 0.9 WSW 19 26 10 14 1021.7 1021.8 0.4
07/04:00am 7.3 2.4 5.1 86 1.0 WSW 20 28 11 15 1021.5 1021.6 0.4
07/03:30am 8.3 1.9 5.2 81 1.4 SW 28 39 15 21 1021.5 1021.6 0.4
07/03:00am 8.8 2.1 5.7 81 1.4 SW 30 41 16 22 1021.4 1021.5 0.4
07/02:30am 9.5 3.2 5.9 78 1.7 WSW 28 39 15 21 1021.2 1021.3 0.4
07/02:00am 10.5 4.4 6.5 76 1.9 SW 28 43 15 23 1021.0 1021.0 0.4
07/01:30am 11.4 5.1 8.8 84 1.3 SW 32 46 17 25 1020.8 1020.8 0.4
07/01:00am 11.9 6.6 10.0 88 1.0 WSW 28 39 15 21 1020.5 1020.5 0.4
07/12:30am 11.9 7.3 11.0 94 0.5 SW 26 35 14 19 1020.2 1020.2 0.4
07/12:09am 12.0 6.3 11.8 99 0.1 WSW 33 52 18 28 1020.1 1020.1 0.4
07/12:00am 12.8 7.6 11.5 92 0.7 W 30 46 16 25 1020.0 1020.0 0.0
 
Date/Time
EST
Temp
°C
App
Temp
°C
Dew
Point
°C
Rel
Hum
%
Delta-T
°C
Wind Press
QNH
hPa
Press
MSL
hPa
Rain since
9am
mm
Dir  Spd
km/h
Gust
km/h
Spd
kts
Gust
kts
06/11:59pm 13.1 8.3 11.5 90 0.9 W 28 44 15 24 1019.9 1019.9 0.0
06/11:30pm 12.6 9.4 9.8 83 1.4 WNW 17 22 9 12 1019.6 1019.6 0.0
06/11:00pm 13.1 8.8 9.4 78 1.9 W 22 32 12 17 1019.8 1019.8 0.0
06/10:30pm 13.8 9.3 6.9 63 3.4 WNW 20 33 11 18 1020.2 1020.2 0.0
06/10:00pm 13.1 10.1 7.8 70 2.6 NW 13 15 7 8 1020.3 1020.3 0.0
06/09:30pm 10.8 7.8 7.9 82 1.4 NW 13 15 7 8 1020.3 1020.3 0.0
06/09:00pm 9.1 5.4 6.4 83 1.2 NW 15 15 8 8 1020.4 1020.4 0.0
06/08:30pm 9.2 6.6 6.1 81 1.4 NNW 9 11 5 6 1020.2 1020.2 0.0
06/08:00pm 10.5 7.6 6.3 75 2.0 WNW 11 13 6 7 1020.4 1020.4 0.0
06/07:30pm 11.6 8.2 5.9 68 2.7 W 13 15 7 8 1020.6 1020.6 0.0
06/07:00pm 12.7 9.3 6.1 64 3.1 W 13 17 7 9 1020.6 1020.6 0.0
06/06:30pm 14.0 9.9 6.4 60 3.7 WSW 17 22 9 12 1020.4 1020.4 0.0

Other formats

Comma delimited format used in spreadsheet applications
http://www.bom.gov.au/fwo/IDN60801/IDN60801.94702.axf

JavaScript Object Notation format (JSON) in row-major order
http://www.bom.gov.au/fwo/IDN60801/IDN60801.94702.json

Data quality

Most of these data are generated automatically and are frequently updated. Quality checks on data are not normally performed. It is possible for incorrect values to appear. Refer to information at About Latest Weather Observations and please check the disclaimer before using these data.